Leipzig/Halle Airport

Airport
ICAO code: 
EDDP
IATA Code: 
LEJ
Summary
ICAO Region: 
EUR
Territory: 
Location: 
Schkeuditz,
Serving: 
Leipzig
Elevation: 
470 ft
Coordinates: 
Aerial View: 
51° 25' 19.493" N, 12° 13' 13.37" E
Metar
Observation
EDDP 161020Z 24014KT 9999 BKN007 02/01 Q1020 TEMPO 24015G25KT SCT008
Station
Leipzig-Schkeuditz
Date/Time
2022-01-16 10:20:00
Wind direction
240°
Wind speed
14 kts
Lowest cloud amount
broken clouds
Temperature
2°C
Dew point
1°C
Humidity
93%
QNH
1020 hPa
Weather condition
n/a

Runways

Designator Length Width Surface Rops
08L/26R 3600 45 CON Yes/Yes
08R/26L 3600 60 CON Yes/Yes
Airport map: 
Aerial View: 

SKYbrary Partners:

Safety knowledge contributed by: